UPSVAC Airport Information Service

Oakland International Airport

ICAO: KOAK Country: United States
Latitude: 37.7213 Longitude: -122.22
Latest Arrival : UPS2487 (KONT-KOAK) Latest Departure : UPS1452 (KOAK-KSDF)


WX CaptureLIVE
Data provided by noaa.gov | Fetched at 13:06:00

METAR : KOAK 141253Z 13008KT 10SM SCT019 BKN026 10/06 A2992 RMK AO2 SLP132 T01000056

TAF : KOAK 141130Z 1412/1518 21009KT P6SM OVC025 FM141600 19005KT P6SM SCT030 FM141800 25008KT P6SM FEW030 FM142200 28012KT P6SM FEW030 FM150500 27008KT P6SM FEW008 FM151100 25005KT P6SM BKN008


Runway Data for KOAK
Data provided by openaviationdata.com

Runway ID Mag Var Hdg Length Elevation Surface ILS Freq ILS Id ILS Slope
09L 16 96° 5447 ft 6 ft Asphalt -- -- --
09R 16 96° 6206 ft 6 ft Asphalt -- -- --
11 16 114° 9998 ft 6 ft Asphalt 111.9 IAAZ 2
15 16 148° 3369 ft 6 ft Asphalt -- -- --
27L 16 276° 6206 ft 6 ft Asphalt -- -- --
27R 16 276° 5447 ft 6 ft Asphalt 109.9 IOAK 2
29 16 294° 9998 ft 6 ft Asphalt 108.7 IINB 3
33 16 328° 3369 ft 6 ft Asphalt -- -- --

Oakland International Airport, United States
Use only for reference purposes



Not for navigational purposes.